Airfield :
LOGIN :

Register | Disclaimer

   EN    FR    IT 

 










Legend :    VFR   Marginal VFR   IFR   Intensive IFR   Very Intensive IFR
Visi :
Ceiling :
>= 8 km
>= 3000ft
5 to 8 km
1000 to 3000 ft
1500m to 5 km
500 to 1000 ft
800 to 1500m
200 to 500 ft
< 800m
< 200 ft
Symbols :   Thunderstorms  Fog  Heavy snow  Heavy precipitations  Wind > 20 kt
SIGMETs :     Misc.  Thunderstorms  Icing  Turbulence  Mountain Waves  Volcanic Ashes






- Airport Elevation : 427 ft
- IATA code : CIA


LIRA - Roma Ciampino

CURRENT METAR :
  • 120620Z 07004KT 040V100 CAVOK 24/17 Q1016

EXPIRED METARs :
  • 120550Z 03003KT 360V070 CAVOK 22/17 Q1016
  • 120520Z 35003KT CAVOK 21/17 Q1016
  • 120450Z VRB01KT CAVOK 22/16 Q1016
  • 120420Z 06003KT CAVOK 22/16 Q1015
  • 120350Z VRB02KT CAVOK 23/15 Q1015

TAF TAF LIRA
Valid from the 12 at 06:00 until the 13 at 06:00 UTC


120500Z 1206/1306 VRB04KT CAVOK
BECMG 1209/1211 25010KT
BECMG 1217/1219 VRB04KT



MET'MAP, your aeronautical weather chart ! - Copyright ORBIFLY December 2007 - Disclaimer

ORBIFLY MET'MAP TEAM :

Programming & Development : Alexandra Zaïnal
Concept & original design : Baudouin d'Aumeries
Assistance for programming : Marc-Olivier Méhu
Technical & hardware support : Manuel Goepfert

Contact : metmap@orbifly.com




SOURCES & CREDITS :

   NOAA